Bryant, Washington
Current Conditions -  °F | °C
As of 8:35 AM on Saturday 20 Dec 2014 (Local Time) from KAWO Reporting Station
Overcast Overcast  
Wind Chill: 40°   Ceiling: 4500
Heat Index: 45°   Visibility: 10mi
Dew Point: 39°   Wind: 8mph
Humidity: 81%   Direction: 110°ESE
Pressure: 29.66"   Gusts: NA
Location:  48.2067°N, 121.947°W
Report Text: KAWO 201635Z AUTO 11007KT 10SM SCT039 BKN045 OVC060 07/04 A2966 RMK AO1
Loading
Personal Weather Stations






























Interactive Weather Map New forecast layout! Learn more

10-Day Weather Forecast

Advertisements
Track Severe Weather on mobile